createdAt,value
2022-09-09T00:02:22.444Z,100.00
2022-09-09T00:05:47.165Z,100.00
2022-09-09T00:08:48.533Z,100.00
2022-09-09T00:11:31.759Z,100.00
2022-09-09T00:14:07.247Z,100.00
2022-09-09T00:16:43.486Z,100.00
2022-09-09T00:19:34.673Z,100.00
2022-09-09T00:22:24.968Z,100.00
2022-09-09T00:24:57.569Z,100.00
2022-09-09T00:27:50.921Z,100.00
2022-09-09T00:30:26.823Z,100.00
2022-09-09T00:33:02.763Z,100.00
2022-09-09T00:35:38.489Z,100.00
2022-09-09T00:38:35.322Z,100.00
2022-09-09T00:41:18.903Z,100.00
2022-09-09T00:44:36.329Z,100.00
2022-09-09T00:47:46.416Z,100.00
2022-09-09T00:50:56.777Z,100.00
2022-09-09T00:54:30.215Z,100.00
2022-09-09T00:57:32.895Z,100.00
2022-09-09T01:00:25.753Z,100.00
2022-09-09T01:03:52.797Z,100.00
2022-09-09T01:06:39.821Z,100.00
2022-09-09T01:09:34.263Z,100.00
2022-09-09T01:12:44.979Z,100.00
2022-09-09T01:15:24.156Z,100.00
2022-09-09T01:18:15.571Z,100.00
2022-09-09T01:21:07.694Z,100.00
2022-09-09T01:23:50.330Z,100.00
2022-09-09T01:26:45.090Z,100.00
2022-09-09T01:29:20.365Z,100.00
2022-09-09T01:32:41.398Z,100.00
2022-09-09T01:35:41.031Z,100.00
2022-09-09T01:38:09.046Z,100.00
2022-09-09T01:40:40.766Z,100.00
2022-09-09T01:43:09.360Z,100.00
2022-09-09T01:45:41.141Z,100.00
2022-09-09T01:48:10.669Z,100.00
2022-09-09T01:50:40.125Z,100.00
2022-09-09T01:53:09.925Z,100.00
2022-09-09T01:55:53.196Z,100.00
2022-09-09T01:59:00.589Z,100.00
2022-09-09T02:02:07.773Z,100.00
2022-09-09T02:04:51.509Z,100.00
2022-09-09T02:07:49.526Z,100.00
2022-09-09T02:11:06.911Z,100.00
2022-09-09T02:13:38.919Z,100.00
2022-09-09T02:16:36.331Z,100.00
2022-09-09T02:19:26.504Z,100.00
2022-09-09T02:22:00.864Z,100.00
2022-09-09T02:24:37.419Z,100.00
2022-09-09T02:27:10.359Z,100.00
2022-09-09T02:29:44.175Z,100.00
2022-09-09T02:32:24.636Z,100.00
2022-09-09T02:35:06.919Z,100.00
2022-09-09T02:37:41.080Z,100.00
2022-09-09T02:40:12.794Z,100.00
2022-09-09T02:42:46.451Z,100.00
2022-09-09T02:45:29.595Z,100.00
2022-09-09T02:48:17.951Z,100.00
2022-09-09T02:51:10.091Z,100.00
2022-09-09T02:54:37.334Z,100.00
2022-09-09T02:57:15.594Z,100.00
2022-09-09T02:59:46.685Z,100.00
2022-09-09T03:02:14.906Z,100.00
2022-09-09T03:04:45.630Z,100.00
2022-09-09T03:07:15.041Z,100.00
2022-09-09T03:09:46.805Z,100.00
2022-09-09T03:12:14.770Z,100.00
2022-09-09T03:14:42.419Z,100.00
2022-09-09T03:17:11.787Z,100.00
2022-09-09T03:19:41.263Z,100.00
2022-09-09T03:22:12.519Z,100.00
2022-09-09T03:24:40.206Z,100.00
2022-09-09T03:27:08.172Z,100.00
2022-09-09T03:29:35.814Z,100.00
2022-09-09T03:32:07.131Z,100.00
2022-09-09T03:34:36.573Z,100.00
2022-09-09T03:37:06.787Z,100.00
2022-09-09T03:39:36.247Z,100.00
2022-09-09T03:42:06.804Z,100.00
2022-09-09T03:44:36.259Z,100.00
2022-09-09T03:47:03.991Z,100.00
2022-09-09T03:49:31.642Z,100.00
2022-09-09T03:52:00.147Z,100.00
2022-09-09T03:54:28.395Z,100.00
2022-09-09T03:56:56.085Z,100.00
2022-09-09T03:59:24.186Z,100.00
2022-09-09T04:01:52.447Z,100.00
2022-09-09T04:04:21.184Z,100.00
2022-09-09T04:06:52.371Z,100.00
2022-09-09T04:09:20.030Z,100.00
2022-09-09T04:11:47.614Z,100.00
2022-09-09T04:14:15.240Z,100.00
2022-09-09T04:16:45.736Z,100.00
2022-09-09T04:19:15.402Z,100.00
2022-09-09T04:21:43.750Z,100.00
2022-09-09T04:24:11.396Z,100.00
2022-09-09T04:26:39.456Z,100.00
2022-09-09T04:29:08.778Z,100.00
2022-09-09T04:31:36.741Z,100.00
2022-09-09T04:34:06.433Z,100.00
2022-09-09T04:36:34.461Z,100.00
2022-09-09T04:39:02.659Z,100.00
2022-09-09T04:41:32.525Z,100.00
2022-09-09T04:44:01.868Z,100.00
2022-09-09T04:46:31.292Z,100.00
2022-09-09T04:49:01.003Z,100.00
2022-09-09T04:51:32.349Z,100.00
2022-09-09T04:54:00.244Z,100.00
2022-09-09T04:56:29.637Z,100.00
2022-09-09T04:58:59.092Z,100.00
2022-09-09T05:01:28.245Z,100.00
2022-09-09T05:03:56.032Z,100.00
2022-09-09T05:06:24.287Z,100.00
2022-09-09T05:08:55.438Z,100.00
2022-09-09T05:11:31.043Z,100.00
2022-09-09T05:13:58.743Z,100.00
2022-09-09T05:16:26.454Z,100.00
2022-09-09T05:18:54.591Z,100.00
2022-09-09T05:21:27.486Z,100.00
2022-09-09T05:23:55.112Z,100.00
2022-09-09T05:26:25.166Z,100.00
2022-09-09T05:28:53.197Z,100.00
2022-09-09T05:31:21.418Z,100.00
2022-09-09T05:33:53.095Z,100.00
2022-09-09T05:36:23.710Z,100.00
2022-09-09T05:38:52.186Z,100.00
2022-09-09T05:41:21.047Z,100.00
2022-09-09T05:43:49.934Z,100.00
2022-09-09T05:46:25.091Z,100.00
2022-09-09T05:48:54.605Z,100.00
2022-09-09T05:51:27.671Z,100.00
2022-09-09T05:54:01.482Z,100.00
2022-09-09T05:56:31.280Z,100.00
2022-09-09T05:59:01.264Z,100.00
2022-09-09T06:01:37.489Z,100.00
2022-09-09T06:04:07.291Z,100.00
2022-09-09T06:06:40.592Z,100.00
2022-09-09T06:09:11.496Z,100.00
2022-09-09T06:11:42.262Z,92.61
2022-09-09T06:14:11.542Z,83.52
2022-09-09T06:16:40.193Z,78.18
2022-09-09T06:19:09.711Z,85.97
2022-09-09T06:21:39.836Z,88.61
2022-09-09T06:24:08.835Z,80.54
2022-09-09T06:26:44.247Z,86.90
2022-09-09T06:29:14.011Z,80.46
2022-09-09T06:31:43.470Z,77.43
2022-09-09T06:34:12.899Z,68.17
2022-09-09T06:36:42.350Z,65.18
2022-09-09T06:39:14.722Z,74.58
2022-09-09T06:41:44.785Z,83.92
2022-09-09T06:44:14.189Z,88.81
2022-09-09T06:46:42.774Z,91.08
2022-09-09T06:49:12.276Z,94.20
2022-09-09T06:51:44.828Z,94.00
2022-09-09T06:54:14.882Z,93.90
2022-09-09T06:56:46.258Z,92.89
2022-09-09T06:59:15.698Z,95.59
2022-09-09T07:01:45.988Z,95.36
2022-09-09T07:04:15.124Z,94.64
2022-09-09T07:06:47.417Z,93.98
2022-09-09T07:09:17.738Z,93.92
2022-09-09T07:11:53.903Z,91.93
2022-09-09T07:14:23.795Z,92.12
2022-09-09T07:16:59.354Z,92.31
2022-09-09T07:19:28.324Z,90.00
2022-09-09T07:21:56.659Z,90.57
2022-09-09T07:24:25.406Z,89.97
2022-09-09T07:26:53.887Z,90.38
2022-09-09T07:29:22.251Z,89.11
2022-09-09T07:31:50.678Z,85.49
2022-09-09T07:34:20.160Z,83.40
2022-09-09T07:36:49.985Z,81.49
2022-09-09T07:39:19.470Z,80.69
2022-09-09T07:41:50.636Z,78.99
2022-09-09T07:44:26.211Z,80.57
2022-09-09T07:46:57.646Z,81.39
2022-09-09T07:49:32.124Z,83.95
2022-09-09T07:52:02.938Z,83.74
2022-09-09T07:54:33.899Z,82.98
2022-09-09T07:57:04.940Z,81.28
2022-09-09T07:59:34.749Z,78.20
2022-09-09T08:02:04.293Z,77.90
2022-09-09T08:04:33.700Z,79.11
2022-09-09T08:07:04.558Z,76.49
2022-09-09T08:09:34.791Z,77.26
2022-09-09T08:12:04.799Z,77.39
2022-09-09T08:14:34.310Z,76.62
2022-09-09T08:17:04.050Z,76.18
2022-09-09T08:19:37.164Z,75.43
2022-09-09T08:22:05.567Z,73.28
2022-09-09T08:24:35.290Z,73.95
2022-09-09T08:27:04.963Z,73.94
2022-09-09T08:29:34.890Z,73.92
2022-09-09T08:32:04.588Z,74.88
2022-09-09T08:34:34.918Z,73.91
2022-09-09T08:37:04.541Z,74.60
2022-09-09T08:39:35.115Z,74.29
2022-09-09T08:42:22.809Z,73.60
2022-09-09T08:45:40.391Z,72.09
2022-09-09T08:49:24.931Z,73.21
2022-09-09T08:51:58.376Z,72.63
2022-09-09T08:54:51.120Z,72.00
2022-09-09T08:57:28.014Z,69.91
2022-09-09T08:59:58.776Z,70.76
2022-09-09T09:03:16.496Z,71.22
2022-09-09T09:06:16.526Z,71.26
2022-09-09T09:09:22.738Z,70.98
2022-09-09T09:12:02.481Z,70.22
2022-09-09T09:14:36.475Z,70.79
2022-09-09T09:17:14.310Z,67.33
2022-09-09T09:19:45.230Z,69.54
2022-09-09T09:22:53.106Z,69.15
2022-09-09T09:25:32.090Z,69.06
2022-09-09T09:28:26.885Z,68.68
2022-09-09T09:31:06.244Z,68.96
2022-09-09T09:33:54.319Z,66.89
2022-09-09T09:36:43.549Z,67.47
2022-09-09T09:42:23.945Z,65.88
2022-09-09T09:44:55.257Z,65.26
2022-09-09T09:47:25.248Z,64.30
2022-09-09T09:50:00.622Z,64.84
2022-09-09T09:52:33.367Z,64.53
2022-09-09T09:55:08.535Z,64.72
2022-09-09T09:57:39.294Z,63.74
2022-09-09T10:00:21.943Z,64.83
2022-09-09T10:02:53.804Z,63.49
2022-09-09T10:05:30.596Z,64.20
2022-09-09T10:08:14.507Z,65.10
2022-09-09T10:11:08.211Z,65.61
2022-09-09T10:14:13.686Z,65.95
2022-09-09T10:17:15.872Z,64.58
2022-09-09T10:20:27.621Z,63.65
2022-09-09T10:23:45.310Z,63.95
2022-09-09T10:26:49.182Z,63.14
2022-09-09T10:30:05.597Z,63.16
2022-09-09T10:36:24.457Z,61.74
2022-09-09T10:39:40.612Z,63.43
2022-09-09T10:42:17.862Z,62.31
2022-09-09T10:45:22.934Z,62.97
2022-09-09T10:48:27.987Z,63.03
2022-09-09T10:51:34.987Z,64.47
2022-09-09T10:54:54.879Z,61.40
2022-09-09T10:57:53.285Z,61.79
2022-09-09T11:00:47.524Z,64.22
2022-09-09T11:03:27.752Z,62.09
2022-09-09T11:06:20.764Z,60.17
2022-09-09T11:08:53.784Z,60.16
2022-09-09T11:11:59.475Z,60.09
2022-09-09T11:14:53.004Z,59.63
2022-09-09T11:17:48.094Z,59.37
2022-09-09T11:20:17.576Z,58.44
2022-09-09T11:23:06.183Z,60.56
2022-09-09T11:25:45.354Z,59.40
2022-09-09T11:29:15.879Z,62.05
2022-09-09T11:32:18.865Z,57.76
2022-09-09T11:35:16.133Z,59.05
2022-09-09T11:38:12.413Z,59.04
2022-09-09T11:40:42.505Z,57.49
2022-09-09T11:43:25.652Z,58.13
2022-09-09T11:46:03.860Z,58.97
2022-09-09T11:48:40.757Z,56.65
2022-09-09T11:51:28.003Z,57.17
2022-09-09T11:54:30.565Z,58.72
2022-09-09T11:57:01.175Z,58.19
2022-09-09T11:59:33.785Z,58.05
2022-09-09T12:02:25.856Z,57.48
2022-09-09T12:05:11.134Z,56.64
2022-09-09T12:07:48.500Z,58.01
2022-09-09T12:10:37.478Z,56.84
2022-09-09T12:13:24.377Z,60.64
2022-09-09T12:16:00.241Z,58.62
2022-09-09T12:18:41.017Z,59.09
2022-09-09T12:21:41.775Z,57.97
2022-09-09T12:24:29.664Z,59.74
2022-09-09T12:27:20.805Z,59.34
2022-09-09T12:30:22.730Z,59.49
2022-09-09T12:33:14.357Z,56.29
2022-09-09T12:35:52.655Z,57.33
2022-09-09T12:38:37.779Z,58.23
2022-09-09T12:41:07.275Z,59.02
2022-09-09T12:43:37.521Z,59.13
2022-09-09T12:46:24.044Z,58.93
2022-09-09T12:48:52.462Z,59.00
2022-09-09T12:51:33.877Z,59.23
2022-09-09T12:54:04.443Z,59.61
2022-09-09T12:56:35.252Z,58.47
2022-09-09T12:59:04.713Z,58.25
2022-09-09T13:01:36.976Z,58.35
2022-09-09T13:04:26.016Z,58.39
2022-09-09T13:06:54.660Z,57.51
2022-09-09T13:09:24.248Z,58.76
2022-09-09T13:12:01.591Z,58.59
2022-09-09T13:14:38.456Z,59.38
2022-09-09T13:17:23.054Z,58.42
2022-09-09T13:19:54.278Z,56.40
2022-09-09T13:22:42.359Z,57.13
2022-09-09T13:25:12.571Z,56.17
2022-09-09T13:28:03.551Z,56.19
2022-09-09T13:30:39.112Z,55.36
2022-09-09T13:33:15.613Z,55.16
2022-09-09T13:36:08.094Z,54.59
2022-09-09T13:38:56.604Z,52.79
2022-09-09T13:41:37.886Z,53.95
2022-09-09T13:44:07.705Z,55.46
2022-09-09T13:46:41.630Z,54.22
2022-09-09T13:49:13.652Z,55.01
2022-09-09T13:51:51.788Z,52.73
2022-09-09T13:54:23.976Z,52.28
2022-09-09T13:56:54.694Z,56.91
2022-09-09T13:59:30.646Z,54.63
2022-09-09T14:02:08.541Z,51.96
2022-09-09T14:04:38.006Z,55.84
2022-09-09T14:07:07.371Z,52.24
2022-09-09T14:09:37.323Z,52.62
2022-09-09T14:12:10.257Z,53.71
2022-09-09T14:14:40.352Z,55.16
2022-09-09T14:17:10.864Z,54.47
2022-09-09T14:19:40.294Z,54.62
2022-09-09T14:22:09.673Z,53.61
2022-09-09T14:24:41.573Z,52.18
2022-09-09T14:27:11.361Z,53.99
2022-09-09T14:29:40.700Z,55.07
2022-09-09T14:32:12.574Z,54.05
2022-09-09T14:34:42.294Z,54.56
2022-09-09T14:37:12.051Z,55.19
2022-09-09T14:39:41.511Z,55.41
2022-09-09T14:42:12.250Z,56.01
2022-09-09T14:44:41.900Z,55.61
2022-09-09T14:47:11.321Z,56.82
2022-09-09T14:49:42.660Z,54.98
2022-09-09T14:52:14.577Z,55.47
2022-09-09T14:54:44.032Z,57.81
2022-09-09T14:57:13.530Z,56.18
2022-09-09T14:59:42.965Z,56.47
2022-09-09T15:02:15.285Z,56.08
2022-09-09T15:04:45.390Z,57.37
2022-09-09T15:07:14.812Z,57.06
2022-09-09T15:09:44.411Z,57.05
2022-09-09T15:12:14.234Z,56.48
2022-09-09T15:14:43.806Z,59.11
2022-09-09T15:17:14.305Z,58.13
2022-09-09T15:19:43.184Z,58.65
2022-09-09T15:22:12.542Z,61.34
2022-09-09T15:24:41.946Z,62.59
2022-09-09T15:27:11.370Z,61.76
2022-09-09T15:29:40.751Z,59.81
2022-09-09T15:32:10.096Z,60.33
2022-09-09T15:34:39.698Z,61.25
2022-09-09T15:37:14.206Z,63.37
2022-09-09T15:39:43.767Z,64.78
2022-09-09T15:42:13.239Z,62.03
2022-09-09T15:44:43.730Z,60.76
2022-09-09T15:47:14.449Z,60.87
2022-09-09T15:49:45.362Z,60.94
2022-09-09T15:52:14.781Z,63.19
2022-09-09T15:54:44.635Z,61.66
2022-09-09T15:57:15.410Z,62.22
2022-09-09T15:59:46.415Z,62.81
2022-09-09T16:02:16.194Z,63.12
2022-09-09T16:04:45.879Z,65.79
2022-09-09T16:07:15.295Z,66.91
2022-09-09T16:09:44.774Z,69.03
2022-09-09T16:12:15.615Z,69.45
2022-09-09T16:14:46.563Z,73.42
2022-09-09T16:17:16.359Z,72.94
2022-09-09T16:19:46.960Z,74.03
2022-09-09T16:22:16.794Z,73.05
2022-09-09T16:24:47.910Z,70.14
2022-09-09T16:27:17.285Z,70.61
2022-09-09T16:29:46.742Z,73.00
2022-09-09T16:32:16.152Z,72.47
2022-09-09T16:34:46.925Z,73.72
2022-09-09T16:37:16.294Z,76.68
2022-09-09T16:39:45.806Z,79.66
2022-09-09T16:42:14.186Z,79.52
2022-09-09T16:44:45.012Z,79.94
2022-09-09T16:47:14.454Z,77.64
2022-09-09T16:49:43.882Z,76.00
2022-09-09T16:52:12.211Z,77.36
2022-09-09T16:54:41.663Z,77.68
2022-09-09T16:57:11.318Z,78.99
2022-09-09T16:59:40.753Z,79.73
2022-09-09T17:02:12.525Z,82.17
2022-09-09T17:04:41.922Z,83.75
2022-09-09T17:07:11.557Z,84.19
2022-09-09T17:09:41.074Z,85.89
2022-09-09T17:12:11.551Z,87.58
2022-09-09T17:14:40.955Z,87.73
2022-09-09T17:17:30.636Z,85.70
2022-09-09T17:20:00.205Z,88.07
2022-09-09T17:22:30.065Z,89.06
2022-09-09T17:24:59.476Z,89.41
2022-09-09T17:27:28.899Z,91.71
2022-09-09T17:29:59.473Z,93.64
2022-09-09T17:32:29.911Z,92.27
2022-09-09T17:34:59.485Z,95.20
2022-09-09T17:37:29.444Z,95.97
2022-09-09T17:39:59.245Z,97.57
2022-09-09T17:42:29.230Z,97.62
2022-09-09T17:44:58.686Z,96.90
2022-09-09T17:47:27.070Z,97.76
2022-09-09T17:49:56.571Z,99.09
2022-09-09T17:52:25.289Z,100.00
2022-09-09T17:54:57.641Z,100.00
2022-09-09T17:57:26.939Z,100.00
2022-09-09T17:59:56.322Z,100.00
2022-09-09T18:05:10.207Z,100.00
2022-09-09T18:07:39.640Z,100.00
2022-09-09T18:10:09.605Z,100.00
2022-09-09T18:12:39.023Z,100.00
2022-09-09T18:15:09.033Z,100.00
2022-09-09T18:20:26.713Z,99.49
2022-09-09T18:22:55.101Z,98.25
2022-09-09T18:25:23.546Z,95.76
2022-09-09T18:27:53.639Z,98.59
2022-09-09T18:30:22.591Z,100.00
2022-09-09T18:32:53.097Z,100.00
2022-09-09T18:35:21.533Z,99.85
2022-09-09T18:37:50.734Z,100.00
2022-09-09T18:40:20.257Z,100.00
2022-09-09T18:42:49.266Z,100.00
2022-09-09T18:45:18.728Z,100.00
2022-09-09T18:47:49.220Z,100.00
2022-09-09T18:50:19.142Z,100.00
2022-09-09T18:52:49.492Z,100.00
2022-09-09T18:55:18.257Z,100.00
2022-09-09T18:57:48.081Z,100.00
2022-09-09T19:00:17.443Z,100.00
2022-09-09T19:02:53.067Z,100.00
2022-09-09T19:05:24.289Z,100.00
2022-09-09T19:07:53.048Z,100.00
2022-09-09T19:10:21.684Z,100.00
2022-09-09T19:12:50.365Z,100.00
2022-09-09T19:15:18.990Z,100.00
2022-09-09T19:17:47.571Z,100.00
2022-09-09T19:20:16.616Z,100.00
2022-09-09T19:22:45.354Z,100.00
2022-09-09T19:25:14.042Z,100.00
2022-09-09T19:27:43.347Z,100.00
2022-09-09T19:30:13.678Z,100.00
2022-09-09T19:32:53.179Z,100.00
2022-09-09T19:35:23.188Z,100.00
2022-09-09T19:37:51.727Z,100.00
2022-09-09T19:40:22.446Z,100.00
2022-09-09T19:42:53.639Z,100.00
2022-09-09T19:45:22.172Z,100.00
2022-09-09T19:47:51.479Z,100.00
2022-09-09T19:50:20.023Z,100.00
2022-09-09T19:52:48.575Z,100.00
2022-09-09T19:55:20.227Z,100.00
2022-09-09T19:57:49.574Z,100.00
2022-09-09T20:00:19.284Z,100.00
2022-09-09T20:03:15.298Z,100.00
2022-09-09T20:05:39.453Z,100.00
2022-09-09T20:08:08.023Z,100.00
2022-09-09T20:10:36.960Z,100.00
2022-09-09T20:13:05.676Z,100.00
2022-09-09T20:15:34.367Z,100.00
2022-09-09T20:18:04.740Z,100.00
2022-09-09T20:20:33.626Z,100.00
2022-09-09T20:23:02.962Z,100.00
2022-09-09T20:25:31.484Z,100.00
2022-09-09T20:28:00.858Z,100.00
2022-09-09T20:30:29.405Z,100.00
2022-09-09T20:32:57.913Z,100.00
2022-09-09T20:35:26.432Z,100.00
2022-09-09T20:37:55.147Z,100.00
2022-09-09T20:40:24.728Z,100.00
2022-09-09T20:42:53.228Z,100.00
2022-09-09T20:45:23.095Z,100.00
2022-09-09T20:47:51.726Z,100.00
2022-09-09T20:50:20.553Z,100.00
2022-09-09T20:52:49.185Z,100.00
2022-09-09T20:55:18.941Z,100.00
2022-09-09T20:57:48.066Z,100.00
2022-09-09T21:00:16.785Z,100.00
2022-09-09T21:02:46.109Z,100.00
2022-09-09T21:05:14.830Z,100.00
2022-09-09T21:07:44.209Z,100.00
2022-09-09T21:10:12.826Z,100.00
2022-09-09T21:12:41.363Z,100.00
2022-09-09T21:15:11.451Z,100.00
2022-09-09T21:17:40.399Z,100.00
2022-09-09T21:20:09.859Z,100.00
2022-09-09T21:22:38.438Z,100.00
2022-09-09T21:25:08.079Z,100.00
2022-09-09T21:27:36.614Z,100.00
2022-09-09T21:30:05.612Z,100.00
2022-09-09T21:32:34.149Z,100.00
2022-09-09T21:35:02.719Z,100.00
2022-09-09T21:37:32.051Z,100.00
2022-09-09T21:40:00.671Z,100.00
2022-09-09T21:42:29.637Z,100.00
2022-09-09T21:44:58.179Z,100.00
2022-09-09T21:47:26.732Z,100.00
2022-09-09T21:49:55.250Z,100.00
2022-09-09T21:52:24.468Z,100.00
2022-09-09T21:54:52.972Z,100.00
2022-09-09T21:57:24.897Z,100.00
2022-09-09T21:59:53.642Z,100.00
2022-09-09T22:02:22.379Z,100.00
2022-09-09T22:04:52.241Z,100.00
2022-09-09T22:07:21.065Z,100.00
2022-09-09T22:09:49.567Z,100.00
2022-09-09T22:12:18.067Z,100.00
2022-09-09T22:14:46.496Z,100.00
2022-09-09T22:17:15.845Z,100.00
2022-09-09T22:19:44.241Z,100.00
2022-09-09T22:22:13.044Z,100.00
2022-09-09T22:24:41.685Z,100.00
2022-09-09T22:27:11.593Z,100.00
2022-09-09T22:29:41.012Z,100.00
2022-09-09T22:32:10.668Z,100.00
2022-09-09T22:34:39.990Z,100.00
2022-09-09T22:37:08.638Z,100.00
2022-09-09T22:39:37.175Z,100.00
2022-09-09T22:42:07.658Z,100.00
2022-09-09T22:44:36.175Z,100.00
2022-09-09T22:47:04.982Z,100.00
2022-09-09T22:49:33.395Z,100.00
2022-09-09T22:52:02.446Z,100.00
2022-09-09T22:54:30.950Z,100.00
2022-09-09T22:56:59.466Z,100.00
2022-09-09T22:59:28.279Z,100.00
2022-09-09T23:01:59.042Z,100.00
2022-09-09T23:04:27.682Z,100.00
2022-09-09T23:06:56.052Z,100.00
2022-09-09T23:09:24.408Z,100.00
2022-09-09T23:11:54.006Z,100.00
2022-09-09T23:14:22.458Z,100.00
2022-09-09T23:16:52.716Z,100.00
2022-09-09T23:19:22.005Z,100.00
2022-09-09T23:21:50.956Z,100.00
2022-09-09T23:24:19.373Z,100.00
2022-09-09T23:26:47.967Z,100.00
2022-09-09T23:29:16.986Z,100.00
2022-09-09T23:31:46.710Z,100.00
2022-09-09T23:34:15.260Z,100.00
2022-09-09T23:36:43.811Z,100.00
2022-09-09T23:39:13.447Z,100.00
2022-09-09T23:41:42.070Z,100.00
2022-09-09T23:44:12.874Z,100.00
2022-09-09T23:46:41.497Z,100.00
2022-09-09T23:49:10.494Z,100.00
2022-09-09T23:51:39.231Z,100.00
2022-09-09T23:54:09.952Z,100.00
2022-09-09T23:56:42.573Z,100.00
2022-09-09T23:59:11.275Z,100.00
